Daglege Rapportar

Klikk her for oppdatering!


Detaljar i dag

19/10/20
Time         Wind Dir   Wind Spd  Wind Gust   Humidity       Temp  Raw Barom   Tot Rain Temp Out H Temp Out L  DailyRain   HourRain
                            mps        mps          %         C         mb         mm         C         C         mm         mm
0:00              355          2          4         69        5.0    1018.52     930.60        5.0        5.0       0.00       0.00
1:00                5          1          4         72        4.6    1018.32     930.60        5.1        4.6       0.00       0.00
2:00                5          1          3         75        4.1    1018.56     930.60        5.1        3.9       0.00       0.00
3:00               12          0          2         76        3.9    1018.62     930.60        5.1        3.9       0.00       0.00
4:00               11          0          2         80        2.9    1018.73     930.60        5.1        2.9       0.00       0.00
5:00              360          0          3         78        3.4    1018.62     930.60        5.1        2.8       0.00       0.00
6:00              360          1          2         78        3.4    1018.35     930.60        5.1        2.8       0.00       0.00
7:00              360          0          2         81        2.8    1018.29     930.60        5.1        2.8       0.00       0.00
8:00              360          1          2         82        2.8    1018.59     930.60        5.1        2.8       0.00       0.00
9:00              360          1          2         82        3.2    1018.69     930.60        5.1        2.7       0.00       0.00
10:00             360          0          1         86        3.3    1019.13     930.60        5.1        2.7       0.00       0.00
11:00               5          0          0         82        4.3    1019.44     930.60        5.1        2.7       0.00       0.00
12:00               5          0          1         80        5.1    1019.60     930.60        5.1        2.7       0.00       0.00
13:00             355          0          1         77        5.3    1019.71     930.60        5.4        2.7       0.00       0.00
14:00             117          0          1         77        5.3    1019.74     930.60        5.4        2.7       0.00       0.00
15:00              74          0          1         75        5.7    1019.47     930.60        5.7        2.7       0.00       0.00
16:00             132          0          2         74        5.7    1019.00     930.60        5.7        2.7       0.00       0.00
17:00             111          0          1         75        5.3    1018.86     930.60        5.7        2.7       0.00       0.00

 


Detaljar i gr

18/10/20
Time         Wind Dir   Wind Spd  Wind Gust   Humidity       Temp  Raw Barom   Tot Rain Temp Out H Temp Out L  DailyRain   HourRain
                            mps        mps          %         C         mb         mm         C         C         mm         mm
0:00              355          1          7         75        5.2    1019.54     930.60        5.2        5.2       0.40       0.00
1:00              339          1          4         73        5.4    1019.64     930.60        5.4        4.8       0.00       0.00
2:00               10          2          4         73        4.8    1019.57     930.60        5.7        4.8       0.00       0.00
3:00              305          0          7         72        4.8    1019.17     930.60        5.7        4.5       0.00       0.00
4:00              355          1          6         72        4.9    1018.96     930.60        5.7        4.4       0.00       0.00
5:00              360          1          5         69        4.7    1018.96     930.60        5.7        4.4       0.00       0.00
6:00              349          2          5         71        4.3    1019.20     930.60        5.7        4.3       0.00       0.00
7:00                9          2          4         69        4.3    1018.76     930.60        5.7        4.3       0.00       0.00
8:00              323          2          4         67        4.6    1018.83     930.60        5.7        3.8       0.00       0.00
9:00              320          1          6         69        4.9    1019.17     930.60        5.7        3.8       0.00       0.00
10:00             294          4          6         68        5.3    1018.89     930.60        5.7        3.8       0.00       0.00
11:00             296          3          6         66        6.4    1018.66     930.60        6.5        3.8       0.00       0.00
12:00             360          2          8         65        7.7    1018.46     930.60        7.7        3.8       0.00       0.00
13:00             321          4          7         69        7.1    1018.59     930.60        7.8        3.8       0.00       0.00
14:00             360          4          7         63        8.5    1018.08     930.60        8.7        3.8       0.00       0.00
15:00             360          4          7         62        7.5    1018.12     930.60        8.7        3.8       0.00       0.00
16:00             360          2          6         58        8.1    1017.91     930.60        8.8        3.8       0.00       0.00
17:00             325          4          4         60        6.8    1017.91     930.60        8.8        3.8       0.00       0.00
18:00             355          0          6         59        6.8    1017.85     930.60        8.8        3.8       0.00       0.00
19:00             355          1          4         63        5.9    1017.71     930.60        8.8        3.8       0.00       0.00
20:00             355          0          3         66        5.2    1018.08     930.60        8.8        3.8       0.00       0.00
21:00             355          1          3         66        5.3    1018.42     930.60        8.8        3.8       0.00       0.00
22:00             360          1          3         65        5.6    1018.49     930.60        8.8        3.8       0.00       0.00
23:00             355          2          4         66        5.5    1018.52     930.60        8.8        3.8       0.00       0.00